Aérodrome :
LOGIN :

S'inscrire | Disclaimer

   EN    FR    IT 

 










Légende :    VFR   VFR Marginal   IFR   IFR Intensif   IFR Très Intensif
Visi : 
Plafond : 
>= 8 km
>= 3000ft
5 à 8 km
1000 à 3000 ft
1500m à 5 km
500 à 1000 ft
800 à 1500m
200 à 500 ft
< 800m
< 200 ft
Symboles :   Orages  Brouillard  Fortes neiges  Fortes précipitations  Vent > 20 kt
SIGMETs :   Divers  Orages  Givrage  Turbulence  Onde Orograph.  Cendres Volcan.







- Altitude de l'aérodrome : 302 ft
- Code IATA : MAH


LEMH - Menorca

DERNIER METAR :
  • 230430Z AUTO 19001KT 9999 FEW020/// 12/11 Q1017

METARs EXPIRÉS :
  • 230400Z AUTO VRB02KT 9999 SCT021/// 14/12 Q1016
  • 230330Z AUTO 17002KT 9999 SCT021/// 14/12 Q1016
  • 230300Z AUTO 16002KT 9999 SCT022/// 14/12 Q1017
  • 230230Z AUTO 16003KT 9999 FEW018/// SCT023/// 14/12 Q1017
  • 230200Z AUTO 18004KT 9999 BKN019/// 14/12 Q1017

TAF TAF LEMH
Valide du 23 à 03h jusqu'au 24 à 03h UTC


230200Z 2303/2403 18009KT 9999 FEW020 TX20/2312Z TN09/2306Z
PROB30
TEMPO 2303/2307 BKN014
Pas de NOTAMs connus pour ce terrain.



MET'MAP, la Météo Aéronautique d'un coup d'oeil ! - Copyright ORBIFLY Décembre 2007 - Disclaimer

ORBIFLY MET'MAP TEAM :

Programmation & Développement : Alexandra Zaïnal
Conception & Développement : Baudouin d'Aumeries
Co-Programmation & Développement : Marc-Olivier Méhu
Soutien technique & logistique : Manuel Goepfert

Contact : metmap@orbifly.com




SOURCES & CREDITS :

   NOAA